Ulco, South Africa
Current Conditions -  °F | °C
As of 2:00 AM on Sunday 26 Oct 2014 (Local Time) from FAKM Reporting Station
NA  
Wind Chill: 64°   Ceiling: NA
Heat Index: 64°   Visibility: NA
Dew Point: 48°   Wind: 16mph
Humidity: 56%   Direction: 40°NE
Pressure: 30.09"   Gusts: NA
Location:  28.33°S, 24.21°E
Report Text: FAKM 260000Z AUTO 04014KT //// // ////// 18/09 Q1019
Loading
Personal Weather Stations






























Interactive Weather Map
Tropical Storm Tracking
New forecast layout! Learn more

10-Day Weather Forecast

Advertisements
Track Severe Weather on mobile